createdAt,value
2023-04-14T00:00:34.993Z,100231.34
2023-04-14T00:03:01.631Z,100222.91
2023-04-14T00:05:32.281Z,100236.56
2023-04-14T00:08:01.085Z,100253.53
2023-04-14T00:10:27.764Z,100256.09
2023-04-14T00:12:54.392Z,100252.72
2023-04-14T00:15:21.251Z,100242.56
2023-04-14T00:17:47.610Z,100257.84
2023-04-14T00:20:13.920Z,100260.34
2023-04-14T00:22:40.268Z,100263.75
2023-04-14T00:25:06.803Z,100266.28
2023-04-14T00:27:33.136Z,100259.53
2023-04-14T00:29:59.427Z,100262.06
2023-04-14T00:32:25.776Z,100278.19
2023-04-14T00:34:52.096Z,100278.25
2023-04-14T00:37:18.380Z,100272.31
2023-04-14T00:39:44.673Z,100281.69
2023-04-14T00:42:10.988Z,100284.22
2023-04-14T00:44:37.348Z,100282.47
2023-04-14T00:47:04.077Z,100279.94
2023-04-14T00:49:30.464Z,100287.56
2023-04-14T00:51:56.913Z,100291.84
2023-04-14T00:54:24.577Z,100291.03
2023-04-14T00:56:53.448Z,100288.50
2023-04-14T00:59:22.560Z,100281.69
2023-04-14T01:01:49.140Z,100278.28
2023-04-14T01:04:16.108Z,100276.56
2023-04-14T01:06:42.564Z,100285.88
2023-04-14T01:09:09.491Z,100283.31
2023-04-14T01:12:03.437Z,100283.31
2023-04-14T01:14:43.475Z,100276.50
2023-04-14T01:17:15.227Z,100279.03
2023-04-14T01:20:00.381Z,100272.28
2023-04-14T01:22:30.890Z,100279.03
2023-04-14T01:25:38.558Z,100281.59
2023-04-14T01:28:48.197Z,100277.38
2023-04-14T01:31:18.863Z,100278.25
2023-04-14T01:33:53.723Z,100277.34
2023-04-14T01:36:28.295Z,100267.97
2023-04-14T01:38:57.621Z,100277.28
2023-04-14T01:41:28.412Z,100282.38
2023-04-14T01:43:55.929Z,100282.41
2023-04-14T01:46:22.280Z,100281.53
2023-04-14T01:48:49.826Z,100276.44
2023-04-14T01:51:18.817Z,100281.59
2023-04-14T01:53:46.034Z,100278.25
2023-04-14T01:56:12.925Z,100277.38
2023-04-14T01:58:41.338Z,100283.31
2023-04-14T02:01:08.133Z,100279.94
2023-04-14T02:03:36.422Z,100285.03
2023-04-14T02:06:05.358Z,100280.00
2023-04-14T02:08:32.660Z,100292.72
2023-04-14T02:10:59.322Z,100280.81
2023-04-14T02:13:27.323Z,100280.84
2023-04-14T02:15:53.732Z,100287.66
2023-04-14T02:18:22.916Z,100291.91
2023-04-14T02:20:49.868Z,100285.13
2023-04-14T02:23:16.228Z,100287.66
2023-04-14T02:25:51.829Z,100285.13
2023-04-14T02:28:20.667Z,100287.69
2023-04-14T02:30:50.608Z,100295.28
2023-04-14T02:33:21.215Z,100297.00
2023-04-14T02:35:55.851Z,100300.38
2023-04-14T02:38:29.375Z,100307.19
2023-04-14T02:40:56.342Z,100304.66
2023-04-14T02:43:31.442Z,100309.81
2023-04-14T02:46:01.068Z,100304.75
2023-04-14T02:48:29.055Z,100310.63
2023-04-14T02:50:56.574Z,100306.41
2023-04-14T02:53:25.055Z,100304.72
2023-04-14T02:55:51.627Z,100312.34
2023-04-14T02:58:19.131Z,100310.69
2023-04-14T03:00:46.398Z,100306.47
2023-04-14T03:03:13.457Z,100322.69
2023-04-14T03:05:40.580Z,100320.09
2023-04-14T03:08:07.422Z,100313.22
2023-04-14T03:10:34.109Z,100308.06
2023-04-14T03:13:03.242Z,100320.00
2023-04-14T03:15:31.414Z,100318.34
2023-04-14T03:17:59.582Z,100309.75
2023-04-14T03:20:26.677Z,100300.38
2023-04-14T03:22:54.325Z,100308.00
2023-04-14T03:25:20.814Z,100306.31
2023-04-14T03:27:48.260Z,100312.25
2023-04-14T03:30:16.359Z,100299.56
2023-04-14T03:32:45.312Z,100301.25
2023-04-14T03:35:13.394Z,100305.53
2023-04-14T03:37:41.191Z,100303.88
2023-04-14T03:40:11.403Z,100297.13
2023-04-14T03:42:40.755Z,100289.53
2023-04-14T03:45:08.040Z,100298.84
2023-04-14T03:47:34.382Z,100290.34
2023-04-14T03:50:06.792Z,100290.41
2023-04-14T03:52:35.086Z,100291.19
2023-04-14T03:55:05.182Z,100297.13
2023-04-14T03:57:32.515Z,100291.19
2023-04-14T04:00:01.508Z,100294.56
2023-04-14T04:02:30.183Z,100278.41
2023-04-14T04:04:58.664Z,100285.19
2023-04-14T04:07:27.043Z,100282.66
2023-04-14T04:09:53.773Z,100282.63
2023-04-14T04:12:21.217Z,100279.25
2023-04-14T04:14:47.717Z,100275.88
2023-04-14T04:17:18.186Z,100274.19
2023-04-14T04:19:46.356Z,100280.94
2023-04-14T04:22:16.479Z,100269.91
2023-04-14T04:24:45.093Z,100275.06
2023-04-14T04:27:24.409Z,100271.63
2023-04-14T04:29:53.863Z,100276.75
2023-04-14T04:32:20.449Z,100275.91
2023-04-14T04:34:48.380Z,100281.91
2023-04-14T04:37:15.899Z,100285.31
2023-04-14T04:39:42.330Z,100283.63
2023-04-14T04:42:08.646Z,100280.25
2023-04-14T04:44:35.081Z,100279.41
2023-04-14T04:47:02.070Z,100285.34
2023-04-14T04:49:28.889Z,100279.34
2023-04-14T04:51:55.272Z,100280.22
2023-04-14T04:54:21.543Z,100278.56
2023-04-14T04:56:48.141Z,100275.16
2023-04-14T04:59:14.566Z,100270.94
2023-04-14T05:01:41.352Z,100273.47
2023-04-14T05:04:07.707Z,100275.13
2023-04-14T05:06:37.155Z,100278.50
2023-04-14T05:09:03.913Z,100270.91
2023-04-14T05:11:30.492Z,100276.91
2023-04-14T05:13:56.883Z,100266.75
2023-04-14T05:16:23.299Z,100270.16
2023-04-14T05:18:49.709Z,100275.28
2023-04-14T05:21:16.034Z,100271.84
2023-04-14T05:23:43.940Z,100277.81
2023-04-14T05:26:31.042Z,100282.03
2023-04-14T05:28:57.709Z,100279.53
2023-04-14T05:31:24.021Z,100282.09
2023-04-14T05:33:50.352Z,100280.41
2023-04-14T05:36:16.681Z,100281.28
2023-04-14T05:38:43.038Z,100277.91
2023-04-14T05:41:09.578Z,100288.13
2023-04-14T05:43:35.962Z,100277.91
2023-04-14T05:46:02.357Z,100289.84
2023-04-14T05:48:28.768Z,100280.53
2023-04-14T05:50:55.064Z,100286.44
2023-04-14T05:53:21.363Z,100286.47
2023-04-14T05:55:47.672Z,100290.72
2023-04-14T05:58:14.216Z,100286.53
2023-04-14T06:00:40.510Z,100284.84
2023-04-14T06:03:07.097Z,100289.06
2023-04-14T06:05:33.483Z,100288.31
2023-04-14T06:07:59.799Z,100284.84
2023-04-14T06:10:28.998Z,100284.84
2023-04-14T06:12:55.311Z,100292.59
2023-04-14T06:15:21.643Z,100295.13
2023-04-14T06:17:48.008Z,100292.50
2023-04-14T06:20:14.602Z,100291.66
2023-04-14T06:22:41.020Z,100291.66
2023-04-14T06:25:07.686Z,100296.75
2023-04-14T06:27:33.997Z,100298.44
2023-04-14T06:30:00.483Z,100301.94
2023-04-14T06:32:26.815Z,100298.53
2023-04-14T06:34:53.504Z,100303.66
2023-04-14T06:37:19.836Z,100305.34
2023-04-14T06:39:46.148Z,100308.78
2023-04-14T06:42:12.691Z,100298.56
2023-04-14T06:44:39.841Z,100307.97
2023-04-14T06:47:06.099Z,100305.41
2023-04-14T06:49:34.558Z,100306.28
2023-04-14T06:52:00.833Z,100302.00
2023-04-14T06:54:27.121Z,100303.72
2023-04-14T06:56:53.446Z,100302.00
2023-04-14T06:59:19.747Z,100305.44
2023-04-14T07:01:46.084Z,100306.31
2023-04-14T07:04:12.490Z,100307.16
2023-04-14T07:06:38.816Z,100310.56
2023-04-14T07:09:05.152Z,100302.91
2023-04-14T07:11:31.417Z,100309.72
2023-04-14T07:13:57.723Z,100302.94
2023-04-14T07:16:24.137Z,100308.03
2023-04-14T07:18:50.504Z,100311.41
2023-04-14T07:21:16.838Z,100303.81
2023-04-14T07:23:43.178Z,100308.91
2023-04-14T07:26:09.510Z,100308.88
2023-04-14T07:28:35.834Z,100300.38
2023-04-14T07:31:08.171Z,100306.31
2023-04-14T07:33:34.821Z,100298.69
2023-04-14T07:36:04.155Z,100301.22
2023-04-14T07:38:31.633Z,100306.34
2023-04-14T07:40:57.935Z,100304.63
2023-04-14T07:43:24.247Z,100305.44
2023-04-14T07:45:52.000Z,100309.75
2023-04-14T07:48:18.407Z,100312.28
2023-04-14T07:50:48.157Z,100316.50
2023-04-14T07:53:14.434Z,100314.78
2023-04-14T07:55:40.722Z,100313.97
2023-04-14T07:58:09.995Z,100311.44
2023-04-14T08:00:36.325Z,100314.00
2023-04-14T08:03:02.782Z,100315.75
2023-04-14T08:05:29.341Z,100320.00
2023-04-14T08:07:55.799Z,100314.03
2023-04-14T08:10:22.137Z,100316.53
2023-04-14T08:12:48.486Z,100314.81
2023-04-14T08:15:14.898Z,100308.84
2023-04-14T08:17:41.297Z,100315.63
2023-04-14T08:20:08.247Z,100306.31
2023-04-14T08:22:34.822Z,100308.84
2023-04-14T08:25:01.473Z,100306.31
2023-04-14T08:27:29.066Z,100307.19
2023-04-14T08:29:55.340Z,100307.19
2023-04-14T08:32:21.647Z,100302.09
2023-04-14T08:35:41.015Z,100297.84
2023-04-14T08:37:34.307Z,100300.38
2023-04-14T08:40:00.678Z,100292.75
2023-04-14T08:42:30.014Z,100291.03
2023-04-14T08:44:56.430Z,100291.91
2023-04-14T08:47:23.210Z,100288.47
2023-04-14T08:49:56.940Z,100284.22
2023-04-14T08:52:26.585Z,100280.81
2023-04-14T08:54:55.890Z,100278.28
2023-04-14T08:57:24.722Z,100276.56
2023-04-14T08:59:52.065Z,100284.16
2023-04-14T09:02:19.116Z,100282.50
2023-04-14T09:04:46.079Z,100287.59
2023-04-14T09:07:13.573Z,100289.25
2023-04-14T09:09:39.851Z,100283.34
2023-04-14T09:12:08.613Z,100281.63
2023-04-14T09:14:35.606Z,100286.75
2023-04-14T09:17:01.988Z,100286.78
2023-04-14T09:19:28.843Z,100287.63
2023-04-14T09:21:55.579Z,100280.81
2023-04-14T09:24:28.218Z,100285.06
2023-04-14T09:26:56.263Z,100286.75
2023-04-14T09:29:22.639Z,100278.28
2023-04-14T09:31:49.490Z,100280.81
2023-04-14T09:34:21.960Z,100288.44
2023-04-14T09:37:08.695Z,100285.94
2023-04-14T09:39:36.228Z,100279.16
2023-04-14T09:42:04.138Z,100280.88
2023-04-14T09:44:30.831Z,100286.81
2023-04-14T09:47:02.607Z,100286.78
2023-04-14T09:49:29.019Z,100275.75
2023-04-14T09:52:03.199Z,100268.94
2023-04-14T09:54:29.515Z,100281.66
2023-04-14T09:56:56.221Z,100284.16
2023-04-14T09:59:33.131Z,100279.94
2023-04-14T10:02:03.455Z,100276.53
2023-04-14T10:04:29.901Z,100273.13
2023-04-14T10:06:59.796Z,100268.88
2023-04-14T10:09:27.870Z,100269.72
2023-04-14T10:12:14.701Z,100272.25
2023-04-14T10:14:42.561Z,100268.03
2023-04-14T10:17:09.659Z,100268.91
2023-04-14T10:19:37.465Z,100268.91
2023-04-14T10:22:05.550Z,100268.94
2023-04-14T10:24:32.638Z,100268.88
2023-04-14T10:27:01.746Z,100260.41
2023-04-14T10:29:31.081Z,100257.84
2023-04-14T10:32:03.722Z,100251.88
2023-04-14T10:34:32.865Z,100259.56
2023-04-14T10:37:12.585Z,100247.66
2023-04-14T10:39:39.616Z,100259.56
2023-04-14T10:42:06.041Z,100248.56
2023-04-14T10:44:34.185Z,100250.25
2023-04-14T10:47:05.734Z,100251.06
2023-04-14T10:49:34.394Z,100245.94
2023-04-14T10:52:06.059Z,100250.22
2023-04-14T10:54:48.616Z,100255.28
2023-04-14T10:57:14.957Z,100253.59
2023-04-14T10:59:42.430Z,100257.84
2023-04-14T11:02:27.660Z,100247.66
2023-04-14T11:05:04.675Z,100249.34
2023-04-14T11:07:35.930Z,100248.47
2023-04-14T11:10:17.427Z,100247.63
2023-04-14T11:12:44.785Z,100248.47
2023-04-14T11:15:11.668Z,100248.47
2023-04-14T11:17:39.024Z,100242.50
2023-04-14T11:20:24.118Z,100243.34
2023-04-14T11:22:52.261Z,100253.59
2023-04-14T11:25:23.602Z,100245.09
2023-04-14T11:27:51.024Z,100239.16
2023-04-14T11:30:18.963Z,100237.44
2023-04-14T11:32:50.211Z,100234.91
2023-04-14T11:35:17.919Z,100240.78
2023-04-14T11:37:44.959Z,100239.16
2023-04-14T11:40:12.848Z,100231.50
2023-04-14T11:42:43.802Z,100230.59
2023-04-14T11:45:10.669Z,100228.03
2023-04-14T11:47:37.021Z,100228.06
2023-04-14T11:50:04.538Z,100230.63
2023-04-14T11:52:33.374Z,100231.44
2023-04-14T11:54:59.755Z,100231.44
2023-04-14T11:57:26.105Z,100230.59
2023-04-14T11:59:52.718Z,100234.00
2023-04-14T12:02:21.404Z,100222.13
2023-04-14T12:04:50.627Z,100223.81
2023-04-14T12:07:18.733Z,100223.00
2023-04-14T12:09:47.162Z,100217.84
2023-04-14T12:12:17.133Z,100219.56
2023-04-14T12:14:50.284Z,100219.56
2023-04-14T12:17:18.017Z,100212.75
2023-04-14T12:19:47.361Z,100209.31
2023-04-14T12:22:13.667Z,100220.41
2023-04-14T12:24:43.664Z,100217.00
2023-04-14T12:27:10.047Z,100215.25
2023-04-14T12:29:36.884Z,100212.69
2023-04-14T12:32:13.475Z,100216.94
2023-04-14T12:34:40.086Z,100204.25
2023-04-14T12:37:10.800Z,100205.09
2023-04-14T12:39:50.889Z,100205.94
2023-04-14T12:42:17.473Z,100198.25
2023-04-14T12:45:02.221Z,100196.56
2023-04-14T12:47:33.661Z,100203.34
2023-04-14T12:50:01.907Z,100195.72
2023-04-14T12:52:39.314Z,100193.19
2023-04-14T12:55:07.477Z,100194.03
2023-04-14T12:57:34.790Z,100187.25
2023-04-14T13:00:01.327Z,100184.69
2023-04-14T13:02:31.231Z,100189.81
2023-04-14T13:04:57.907Z,100184.72
2023-04-14T13:07:24.267Z,100180.47
2023-04-14T13:09:51.253Z,100181.34
2023-04-14T13:12:17.586Z,100176.22
2023-04-14T13:14:43.914Z,100163.47
2023-04-14T13:17:11.073Z,100171.16
2023-04-14T13:19:38.006Z,100171.16
2023-04-14T13:22:04.490Z,100169.44
2023-04-14T13:24:30.887Z,100166.03
2023-04-14T13:26:57.239Z,100166.03
2023-04-14T13:29:23.596Z,100166.88
2023-04-14T13:31:49.970Z,100164.25
2023-04-14T13:34:16.327Z,100173.59
2023-04-14T13:36:42.672Z,100152.34
2023-04-14T13:39:08.965Z,100159.19
2023-04-14T13:41:35.272Z,100155.78
2023-04-14T13:44:01.599Z,100143.91
2023-04-14T13:46:27.925Z,100149.88
2023-04-14T13:48:54.247Z,100148.19
2023-04-14T13:51:21.831Z,100139.69
2023-04-14T13:53:48.184Z,100137.97
2023-04-14T13:56:14.498Z,100138.00
2023-04-14T13:58:40.843Z,100145.66
2023-04-14T14:01:11.558Z,100145.63
2023-04-14T14:03:39.599Z,100150.72
2023-04-14T14:06:06.947Z,100142.22
2023-04-14T14:08:34.791Z,100137.97
2023-04-14T14:11:01.071Z,100146.47
2023-04-14T14:13:27.418Z,100143.06
2023-04-14T14:15:53.759Z,100138.84
2023-04-14T14:18:20.155Z,100141.34
2023-04-14T14:20:46.469Z,100138.84
2023-04-14T14:23:12.769Z,100132.03
2023-04-14T14:25:39.183Z,100130.31
2023-04-14T14:28:05.524Z,100125.22
2023-04-14T14:30:31.883Z,100114.16
2023-04-14T14:32:58.257Z,100117.56
2023-04-14T14:35:24.785Z,100117.56
2023-04-14T14:37:51.103Z,100116.69
2023-04-14T14:40:17.534Z,100120.09
2023-04-14T14:42:43.822Z,100119.25
2023-04-14T14:45:10.508Z,100120.09
2023-04-14T14:47:37.260Z,100120.94
2023-04-14T14:50:06.807Z,100127.75
2023-04-14T14:52:34.283Z,100116.69
2023-04-14T14:55:01.409Z,100119.25
2023-04-14T14:57:28.935Z,100115.00
2023-04-14T14:59:55.231Z,100106.47
2023-04-14T15:02:21.999Z,100102.22
2023-04-14T15:04:48.998Z,100102.19
2023-04-14T15:07:15.396Z,100118.38
2023-04-14T15:09:41.786Z,100114.97
2023-04-14T15:12:08.136Z,100118.41
2023-04-14T15:14:34.458Z,100118.41
2023-04-14T15:17:00.786Z,100122.63
2023-04-14T15:19:27.111Z,100115.84
2023-04-14T15:21:53.438Z,100114.13
2023-04-14T15:24:19.800Z,100119.22
2023-04-14T15:26:46.176Z,100106.50
2023-04-14T15:29:12.493Z,100114.16
2023-04-14T15:31:38.886Z,100109.03
2023-04-14T15:34:05.258Z,100109.91
2023-04-14T15:36:31.603Z,100118.38
2023-04-14T15:38:57.887Z,100116.69
2023-04-14T15:41:24.998Z,100120.97
2023-04-14T15:43:51.313Z,100124.38
2023-04-14T15:46:18.488Z,100134.56
2023-04-14T15:48:44.760Z,100138.81
2023-04-14T15:51:11.072Z,100143.09
2023-04-14T15:53:37.408Z,100137.97
2023-04-14T15:56:03.760Z,100135.41
2023-04-14T15:58:30.106Z,100141.38
2023-04-14T16:00:56.486Z,100141.38
2023-04-14T16:03:23.041Z,100145.63
2023-04-14T16:05:49.559Z,100137.09
2023-04-14T16:08:16.078Z,100130.31
2023-04-14T16:10:42.832Z,100124.34
2023-04-14T16:13:09.240Z,100123.50
2023-04-14T16:15:35.896Z,100116.69
2023-04-14T16:18:02.276Z,100108.16
2023-04-14T16:20:28.659Z,100104.78
2023-04-14T16:22:54.986Z,100103.94
2023-04-14T16:25:22.172Z,100097.13
2023-04-14T16:27:49.111Z,100097.13
2023-04-14T16:30:15.441Z,100106.47
2023-04-14T16:32:41.805Z,100108.16
2023-04-14T16:35:08.565Z,100116.69
2023-04-14T16:37:34.920Z,100117.53
2023-04-14T16:40:01.347Z,100114.16
2023-04-14T16:42:27.741Z,100108.19
2023-04-14T16:44:55.010Z,100113.28
2023-04-14T16:47:22.763Z,100101.38
2023-04-14T16:49:50.081Z,100106.47
2023-04-14T16:52:16.401Z,100112.44
2023-04-14T16:54:42.907Z,100106.47
2023-04-14T16:57:09.468Z,100108.19
2023-04-14T16:59:36.022Z,100114.13
2023-04-14T17:02:02.801Z,100109.88
2023-04-14T17:04:29.459Z,100114.13
2023-04-14T17:06:55.866Z,100122.66
2023-04-14T17:09:22.178Z,100126.91
2023-04-14T17:11:48.460Z,100127.75
2023-04-14T17:14:17.767Z,100127.75
2023-04-14T17:16:44.242Z,100131.13
2023-04-14T17:19:10.593Z,100129.44
2023-04-14T17:21:36.938Z,100125.19
2023-04-14T17:24:03.540Z,100118.38
2023-04-14T17:26:29.901Z,100125.19
2023-04-14T17:28:56.228Z,100120.91
2023-04-14T17:31:22.626Z,100120.09
2023-04-14T17:33:49.231Z,100120.09
2023-04-14T17:36:15.653Z,100124.31
2023-04-14T17:38:41.980Z,100123.47
2023-04-14T17:41:10.342Z,100119.22
2023-04-14T17:43:37.324Z,100120.91
2023-04-14T17:46:04.929Z,100114.97
2023-04-14T17:48:31.911Z,100130.28
2023-04-14T17:50:59.294Z,100143.06
2023-04-14T17:53:26.016Z,100129.44
2023-04-14T17:55:52.344Z,100126.88
2023-04-14T17:58:19.207Z,100129.41
2023-04-14T18:00:46.011Z,100129.38
2023-04-14T18:03:13.097Z,100123.50
2023-04-14T18:05:40.813Z,100119.22
2023-04-14T18:08:07.102Z,100121.78
2023-04-14T18:10:33.396Z,100137.91
2023-04-14T18:12:59.691Z,100135.38
2023-04-14T18:15:26.094Z,100127.69
2023-04-14T18:17:52.433Z,100123.44
2023-04-14T18:20:18.767Z,100137.91
2023-04-14T18:22:45.063Z,100143.84
2023-04-14T18:25:11.362Z,100148.94
2023-04-14T18:30:07.951Z,100120.91
2023-04-14T18:32:34.290Z,100120.03
2023-04-14T18:35:00.625Z,100137.88
2023-04-14T18:37:26.952Z,100136.19
2023-04-14T18:39:53.292Z,100120.88
2023-04-14T18:42:19.617Z,100118.34
2023-04-14T18:44:45.943Z,100113.25
2023-04-14T18:47:12.240Z,100111.53
2023-04-14T18:49:38.581Z,100123.44
2023-04-14T18:52:04.925Z,100104.72
2023-04-14T18:54:31.386Z,100103.91
2023-04-14T18:56:57.681Z,100092.00
2023-04-14T18:59:24.208Z,100094.56
2023-04-14T19:01:50.618Z,100080.94
2023-04-14T19:04:17.024Z,100086.06
2023-04-14T19:06:43.368Z,100086.91
2023-04-14T19:09:09.673Z,100087.75
2023-04-14T19:11:36.075Z,100093.69
2023-04-14T19:14:05.729Z,100092.00
2023-04-14T19:16:32.250Z,100097.09
2023-04-14T19:18:58.961Z,100095.41
2023-04-14T19:21:25.287Z,100088.59
2023-04-14T19:23:51.569Z,100097.13
2023-04-14T19:26:17.879Z,100094.53
2023-04-14T19:28:44.186Z,100094.56
2023-04-14T19:31:10.650Z,100093.72
2023-04-14T19:33:38.234Z,100096.25
2023-04-14T19:36:24.835Z,100094.56
2023-04-14T19:38:51.125Z,100094.56
2023-04-14T19:41:17.435Z,100082.66
2023-04-14T19:43:43.721Z,100081.81
2023-04-14T19:46:10.023Z,100091.16
2023-04-14T19:48:36.360Z,100086.03
2023-04-14T19:51:02.741Z,100089.47
2023-04-14T19:53:29.502Z,100089.47
2023-04-14T19:55:58.924Z,100087.75
2023-04-14T19:58:27.098Z,100083.50
2023-04-14T20:00:54.270Z,100087.78
2023-04-14T20:03:20.670Z,100095.41
2023-04-14T20:05:54.384Z,100094.56
2023-04-14T20:08:23.431Z,100092.03
2023-04-14T20:10:51.981Z,100092.84
2023-04-14T20:13:19.925Z,100097.13
2023-04-14T20:15:46.325Z,100086.06
2023-04-14T20:18:12.636Z,100086.06
2023-04-14T20:20:39.699Z,100078.41
2023-04-14T20:23:06.164Z,100075.03
2023-04-14T20:25:32.747Z,100079.28
2023-04-14T20:27:59.265Z,100079.28
2023-04-14T20:30:25.607Z,100075.84
2023-04-14T20:32:51.960Z,100074.16
2023-04-14T20:35:18.351Z,100073.31
2023-04-14T20:37:44.656Z,100069.91
2023-04-14T20:40:10.979Z,100063.09
2023-04-14T20:42:37.311Z,100075.88
2023-04-14T20:45:03.891Z,100074.16
2023-04-14T20:47:30.240Z,100063.09
2023-04-14T20:49:56.555Z,100063.94
2023-04-14T20:52:22.869Z,100059.69
2023-04-14T20:54:49.187Z,100061.38
2023-04-14T20:57:15.516Z,100058.00
2023-04-14T20:59:41.836Z,100052.88
2023-04-14T21:02:08.245Z,100056.28
2023-04-14T21:04:34.613Z,100050.34
2023-04-14T21:07:00.937Z,100055.44
2023-04-14T21:09:27.443Z,100052.03
2023-04-14T21:12:14.585Z,100054.56
2023-04-14T21:15:40.848Z,100042.66
2023-04-14T21:17:26.330Z,100041.84
2023-04-14T21:19:53.293Z,100035.88
2023-04-14T21:22:19.619Z,100045.22
2023-04-14T21:24:45.928Z,100042.66
2023-04-14T21:27:12.300Z,100033.34
2023-04-14T21:29:38.635Z,100030.78
2023-04-14T21:32:05.195Z,100030.78
2023-04-14T21:34:31.636Z,100027.38
2023-04-14T21:36:58.285Z,100029.91
2023-04-14T21:39:25.309Z,100017.19
2023-04-14T21:41:51.615Z,100022.28
2023-04-14T21:44:17.934Z,100018.88
2023-04-14T21:46:44.245Z,100012.91
2023-04-14T21:49:10.543Z,100010.38
2023-04-14T21:51:37.028Z,100001.00
2023-04-14T21:54:03.669Z,100000.16
2023-04-14T21:56:30.006Z,99999.31
2023-04-14T21:58:59.522Z,100004.41
2023-04-14T22:01:28.444Z,99998.47
2023-04-14T22:03:55.941Z,99995.91
2023-04-14T22:06:22.647Z,99991.66
2023-04-14T22:08:49.147Z,99988.28
2023-04-14T22:11:17.887Z,99989.94
2023-04-14T22:13:44.174Z,99984.84
2023-04-14T22:16:10.630Z,99989.97
2023-04-14T22:18:37.476Z,99991.66
2023-04-14T22:21:04.033Z,99987.41
2023-04-14T22:23:30.329Z,99979.75
2023-04-14T22:25:59.284Z,99986.56
2023-04-14T22:28:25.616Z,99984.84
2023-04-14T22:30:51.982Z,99984.00
2023-04-14T22:33:18.408Z,99987.41
2023-04-14T22:35:44.728Z,99985.72
2023-04-14T22:38:11.112Z,99988.28
2023-04-14T22:40:37.448Z,99985.69
2023-04-14T22:43:03.857Z,99987.41
2023-04-14T22:45:31.275Z,99987.41
2023-04-14T22:47:57.603Z,99979.75
2023-04-14T22:50:23.914Z,99983.16
2023-04-14T22:52:50.183Z,99982.31
2023-04-14T22:55:16.513Z,99980.59
2023-04-14T22:57:42.845Z,99987.44
2023-04-14T23:00:09.799Z,99978.06
2023-04-14T23:02:36.300Z,99981.44
2023-04-14T23:05:03.509Z,99977.22
2023-04-14T23:07:29.977Z,99975.50
2023-04-14T23:09:56.288Z,99974.66
2023-04-14T23:12:22.592Z,99974.66
2023-04-14T23:14:48.910Z,99984.03
2023-04-14T23:17:15.238Z,99978.91
2023-04-14T23:19:41.521Z,99980.59
2023-04-14T23:22:07.840Z,99978.06
2023-04-14T23:24:34.129Z,99980.63
2023-04-14T23:27:00.461Z,99985.69
2023-04-14T23:29:26.745Z,99978.03
2023-04-14T23:31:53.073Z,99988.25
2023-04-14T23:34:19.406Z,99988.25
2023-04-14T23:36:46.361Z,99973.81
2023-04-14T23:39:12.655Z,99981.47
2023-04-14T23:41:38.961Z,99972.13
2023-04-14T23:44:05.853Z,99972.97
2023-04-14T23:46:32.301Z,99973.78
2023-04-14T23:48:59.079Z,99968.72
2023-04-14T23:51:37.450Z,99965.31
2023-04-14T23:54:03.802Z,99972.09
2023-04-14T23:56:31.089Z,99967.00
2023-04-14T23:58:58.280Z,99967.84
